sensor_id;sensor_type;location;lat;lon;timestamp;pressure;altitude;pressure_sealevel;temperature;humidity
49194;BME280;35029;50.804;12.866;2023-09-08T00:01:14;98224.47;;;15.03;84.08
49194;BME280;35029;50.804;12.866;2023-09-08T00:03:40;98226.13;;;15.04;84.52
49194;BME280;35029;50.804;12.866;2023-09-08T00:06:05;98220.56;;;15.06;83.88
49194;BME280;35029;50.804;12.866;2023-09-08T00:08:31;98236.16;;;15.09;83.30
49194;BME280;35029;50.804;12.866;2023-09-08T00:10:56;98232.47;;;15.10;83.65
49194;BME280;35029;50.804;12.866;2023-09-08T00:13:22;98239.03;;;15.08;83.32
49194;BME280;35029;50.804;12.866;2023-09-08T00:15:47;98214.66;;;14.97;83.47
49194;BME280;35029;50.804;12.866;2023-09-08T00:18:13;98194.44;;;14.69;83.49
49194;BME280;35029;50.804;12.866;2023-09-08T00:20:38;98226.19;;;14.84;83.99
49194;BME280;35029;50.804;12.866;2023-09-08T00:23:04;98218.41;;;14.83;84.27
49194;BME280;35029;50.804;12.866;2023-09-08T00:25:29;98232.53;;;14.90;84.24
49194;BME280;35029;50.804;12.866;2023-09-08T00:27:55;98233.59;;;14.89;84.43
49194;BME280;35029;50.804;12.866;2023-09-08T00:30:20;98226.56;;;14.95;83.68
49194;BME280;35029;50.804;12.866;2023-09-08T00:32:46;98232.13;;;14.93;83.89
49194;BME280;35029;50.804;12.866;2023-09-08T00:35:11;98225.16;;;14.92;82.85
49194;BME280;35029;50.804;12.866;2023-09-08T00:37:39;98232.75;;;14.88;83.37
49194;BME280;35029;50.804;12.866;2023-09-08T00:40:06;98221.09;;;14.69;83.85
49194;BME280;35029;50.804;12.866;2023-09-08T00:42:34;98215.38;;;14.59;84.97
49194;BME280;35029;50.804;12.866;2023-09-08T00:45:00;98229.75;;;14.65;84.63
49194;BME280;35029;50.804;12.866;2023-09-08T00:47:25;98240.41;;;14.72;84.12
49194;BME280;35029;50.804;12.866;2023-09-08T00:49:51;98216.19;;;14.66;84.15
49194;BME280;35029;50.804;12.866;2023-09-08T00:52:18;98220.72;;;14.59;84.45
49194;BME280;35029;50.804;12.866;2023-09-08T00:54:44;98203.91;;;14.52;85.23
49194;BME280;35029;50.804;12.866;2023-09-08T00:57:09;98211.72;;;14.53;85.60
49194;BME280;35029;50.804;12.866;2023-09-08T00:59:36;98221.53;;;14.60;84.89
49194;BME280;35029;50.804;12.866;2023-09-08T01:02:02;98226.47;;;14.56;85.84
49194;BME280;35029;50.804;12.866;2023-09-08T01:04:28;98199.81;;;14.43;85.42
49194;BME280;35029;50.804;12.866;2023-09-08T01:06:55;98225.06;;;14.47;85.92
49194;BME280;35029;50.804;12.866;2023-09-08T01:09:22;98203.75;;;14.27;86.87
49194;BME280;35029;50.804;12.866;2023-09-08T01:11:48;98218.31;;;14.24;87.76
49194;BME280;35029;50.804;12.866;2023-09-08T01:14:18;98211.75;;;14.20;87.84
49194;BME280;35029;50.804;12.866;2023-09-08T01:16:45;98219.97;;;14.32;88.25
49194;BME280;35029;50.804;12.866;2023-09-08T01:19:12;98227.09;;;14.38;87.42
49194;BME280;35029;50.804;12.866;2023-09-08T01:24:59;98185.09;;;14.07;88.13
49194;BME280;35029;50.804;12.866;2023-09-08T01:27:29;98208.88;;;14.22;87.15
49194;BME280;35029;50.804;12.866;2023-09-08T01:29:59;98206.84;;;14.10;88.00
49194;BME280;35029;50.804;12.866;2023-09-08T01:32:26;98200.88;;;14.15;87.22
49194;BME280;35029;50.804;12.866;2023-09-08T01:34:52;98202.53;;;14.02;89.15
49194;BME280;35029;50.804;12.866;2023-09-08T01:37:17;98210.94;;;14.13;88.48
49194;BME280;35029;50.804;12.866;2023-09-08T01:39:43;98181.22;;;13.89;88.61
49194;BME280;35029;50.804;12.866;2023-09-08T01:42:09;98168.09;;;13.81;89.00
49194;BME280;35029;50.804;12.866;2023-09-08T01:44:35;98200.09;;;13.94;89.86
49194;BME280;35029;50.804;12.866;2023-09-08T01:47:01;98209.53;;;14.03;90.36
49194;BME280;35029;50.804;12.866;2023-09-08T01:49:26;98206.84;;;14.03;88.93
49194;BME280;35029;50.804;12.866;2023-09-08T01:51:52;98206.84;;;14.03;89.75
49194;BME280;35029;50.804;12.866;2023-09-08T01:54:18;98204.41;;;14.09;89.98
49194;BME280;35029;50.804;12.866;2023-09-08T01:56:43;98210.53;;;14.16;90.26
49194;BME280;35029;50.804;12.866;2023-09-08T01:59:09;98207.44;;;14.12;90.82
49194;BME280;35029;50.804;12.866;2023-09-08T02:01:34;98204.78;;;14.12;91.11
49194;BME280;35029;50.804;12.866;2023-09-08T02:04:00;98205.00;;;13.97;91.24
49194;BME280;35029;50.804;12.866;2023-09-08T02:06:26;98212.19;;;14.03;91.54
49194;BME280;35029;50.804;12.866;2023-09-08T02:08:52;98210.13;;;14.06;91.67
49194;BME280;35029;50.804;12.866;2023-09-08T02:11:17;98179.41;;;13.90;91.72
49194;BME280;35029;50.804;12.866;2023-09-08T02:13:43;98206.03;;;14.10;92.41
49194;BME280;35029;50.804;12.866;2023-09-08T02:16:15;98214.63;;;14.12;91.65
49194;BME280;35029;50.804;12.866;2023-09-08T02:18:45;98219.97;;;14.12;91.52
49194;BME280;35029;50.804;12.866;2023-09-08T02:21:11;98190.44;;;13.93;91.67
49194;BME280;35029;50.804;12.866;2023-09-08T02:23:37;98215.44;;;14.06;92.02
49194;BME280;35029;50.804;12.866;2023-09-08T02:26:03;98211.59;;;13.95;92.42
49194;BME280;35029;50.804;12.866;2023-09-08T02:28:29;98214.84;;;13.97;92.83
49194;BME280;35029;50.804;12.866;2023-09-08T02:30:54;98222.84;;;14.03;92.33
49194;BME280;35029;50.804;12.866;2023-09-08T02:33:20;98218.94;;;14.19;91.84
49194;BME280;35029;50.804;12.866;2023-09-08T02:35:46;98216.28;;;14.19;91.70
49194;BME280;35029;50.804;12.866;2023-09-08T02:38:12;98220.97;;;14.24;91.80
49194;BME280;35029;50.804;12.866;2023-09-08T02:40:37;98210.31;;;14.24;92.92
49194;BME280;35029;50.804;12.866;2023-09-08T02:43:04;98220.16;;;14.30;92.87
49194;BME280;35029;50.804;12.866;2023-09-08T02:45:30;98216.44;;;14.31;93.71
49194;BME280;35029;50.804;12.866;2023-09-08T02:47:55;98204.97;;;14.31;92.93
49194;BME280;35029;50.804;12.866;2023-09-08T02:50:22;98206.59;;;14.39;93.14
49194;BME280;35029;50.804;12.866;2023-09-08T02:52:48;98213.53;;;14.53;93.70
49194;BME280;35029;50.804;12.866;2023-09-08T02:55:13;98220.31;;;14.49;94.59
49194;BME280;35029;50.804;12.866;2023-09-08T02:57:40;98199.81;;;14.49;94.92
49194;BME280;35029;50.804;12.866;2023-09-08T03:00:06;98196.09;;;14.50;95.29
49194;BME280;35029;50.804;12.866;2023-09-08T03:02:33;98208.19;;;14.60;94.92
49194;BME280;35029;50.804;12.866;2023-09-08T03:04:59;98203.69;;;14.53;95.25
49194;BME280;35029;50.804;12.866;2023-09-08T03:07:26;98206.78;;;14.50;95.18
49194;BME280;35029;50.804;12.866;2023-09-08T03:09:52;98197.53;;;14.46;94.90
49194;BME280;35029;50.804;12.866;2023-09-08T03:12:18;98196.94;;;14.51;94.63
49194;BME280;35029;50.804;12.866;2023-09-08T03:14:43;98194.28;;;14.44;95.65
49194;BME280;35029;50.804;12.866;2023-09-08T03:17:10;98194.28;;;14.44;95.46
49194;BME280;35029;50.804;12.866;2023-09-08T03:19:36;98187.13;;;14.31;94.78
49194;BME280;35029;50.804;12.866;2023-09-08T03:22:02;98181.63;;;14.19;94.62
49194;BME280;35029;50.804;12.866;2023-09-08T03:24:27;98181.41;;;14.21;95.12
49194;BME280;35029;50.804;12.866;2023-09-08T03:26:53;98191.22;;;14.20;95.16
49194;BME280;35029;50.804;12.866;2023-09-08T03:29:20;98194.53;;;14.16;95.23
49194;BME280;35029;50.804;12.866;2023-09-08T03:31:46;98176.50;;;14.05;96.00
49194;BME280;35029;50.804;12.866;2023-09-08T03:34:11;98177.53;;;14.03;95.39
49194;BME280;35029;50.804;12.866;2023-09-08T03:36:37;98196.41;;;14.09;95.59
49194;BME280;35029;50.804;12.866;2023-09-08T03:39:03;98194.13;;;14.19;94.87
49194;BME280;35029;50.804;12.866;2023-09-08T03:41:29;98157.66;;;13.86;94.99
49194;BME280;35029;50.804;12.866;2023-09-08T03:43:54;98177.31;;;13.92;94.87
49194;BME280;35029;50.804;12.866;2023-09-08T03:46:20;98182.66;;;13.98;94.04
49194;BME280;35029;50.804;12.866;2023-09-08T03:48:46;98188.41;;;13.89;94.66
49194;BME280;35029;50.804;12.866;2023-09-08T03:51:12;98172.84;;;13.79;94.52
49194;BME280;35029;50.804;12.866;2023-09-08T03:53:38;98192.94;;;13.81;95.20
49194;BME280;35029;50.804;12.866;2023-09-08T03:56:03;98164.63;;;13.67;95.26
49194;BME280;35029;50.804;12.866;2023-09-08T03:58:29;98187.38;;;13.76;95.47
49194;BME280;35029;50.804;12.866;2023-09-08T04:00:54;98171.41;;;13.69;95.26
49194;BME280;35029;50.804;12.866;2023-09-08T04:03:20;98160.31;;;13.59;94.06
49194;BME280;35029;50.804;12.866;2023-09-08T04:05:46;98183.50;;;13.72;94.12
49194;BME280;35029;50.804;12.866;2023-09-08T04:08:11;98180.81;;;13.65;94.55
49194;BME280;35029;50.804;12.866;2023-09-08T04:10:37;98181.03;;;13.64;94.08
49194;BME280;35029;50.804;12.866;2023-09-08T04:13:03;98152.53;;;13.51;93.55
49194;BME280;35029;50.804;12.866;2023-09-08T04:15:28;98179.59;;;13.61;94.43
49194;BME280;35029;50.804;12.866;2023-09-08T04:17:54;98179.16;;;13.58;93.88
49194;BME280;35029;50.804;12.866;2023-09-08T04:20:19;98181.22;;;13.49;94.40
49194;BME280;35029;50.804;12.866;2023-09-08T04:22:45;98182.88;;;13.43;94.95
49194;BME280;35029;50.804;12.866;2023-09-08T04:25:12;98181.81;;;13.51;95.63
49194;BME280;35029;50.804;12.866;2023-09-08T04:27:37;98175.06;;;13.55;95.75
49194;BME280;35029;50.804;12.866;2023-09-08T04:30:06;98172.81;;;13.52;95.61
49194;BME280;35029;50.804;12.866;2023-09-08T04:32:32;98179.78;;;13.53;95.49
49194;BME280;35029;50.804;12.866;2023-09-08T04:34:58;98176.09;;;13.47;94.43
49194;BME280;35029;50.804;12.866;2023-09-08T04:37:24;98178.97;;;13.46;93.31
49194;BME280;35029;50.804;12.866;2023-09-08T04:39:49;98187.56;;;13.41;94.46
49194;BME280;35029;50.804;12.866;2023-09-08T04:42:15;98185.25;;;13.31;94.47
49194;BME280;35029;50.804;12.866;2023-09-08T04:44:41;98191.22;;;13.33;94.29
49194;BME280;35029;50.804;12.866;2023-09-08T04:47:08;98187.13;;;13.31;95.09
49194;BME280;35029;50.804;12.866;2023-09-08T04:49:34;98185.25;;;13.31;94.55
49194;BME280;35029;50.804;12.866;2023-09-08T04:52:00;98180.34;;;13.28;93.91
49194;BME280;35029;50.804;12.866;2023-09-08T04:54:27;98170.91;;;13.26;95.00
49194;BME280;35029;50.804;12.866;2023-09-08T04:56:54;98175.84;;;13.29;94.03
49194;BME280;35029;50.804;12.866;2023-09-08T04:59:20;98175.41;;;13.32;94.59
49194;BME280;35029;50.804;12.866;2023-09-08T05:01:46;98175.25;;;13.33;94.13
49194;BME280;35029;50.804;12.866;2023-09-08T05:04:12;98173.59;;;13.26;94.70
49194;BME280;35029;50.804;12.866;2023-09-08T05:06:37;98172.19;;;13.37;94.13
49194;BME280;35029;50.804;12.866;2023-09-08T05:09:03;98169.34;;;13.38;94.03
49194;BME280;35029;50.804;12.866;2023-09-08T05:11:30;98169.75;;;13.48;94.19
49194;BME280;35029;50.804;12.866;2023-09-08T05:13:56;98169.94;;;13.53;93.93
49194;BME280;35029;50.804;12.866;2023-09-08T05:16:24;98159.72;;;13.50;93.14
49194;BME280;35029;50.804;12.866;2023-09-08T05:19:06;98155.59;;;13.41;93.76
49194;BME280;35029;50.804;12.866;2023-09-08T05:21:34;98156.00;;;13.38;94.54
49194;BME280;35029;50.804;12.866;2023-09-08T05:23:59;98170.16;;;13.45;94.15
49194;BME280;35029;50.804;12.866;2023-09-08T05:26:26;98144.91;;;13.34;95.33
49194;BME280;35029;50.804;12.866;2023-09-08T05:28:52;98171.00;;;13.52;95.14
49194;BME280;35029;50.804;12.866;2023-09-08T05:31:17;98173.03;;;13.57;95.44
49194;BME280;35029;50.804;12.866;2023-09-08T05:33:43;98181.25;;;13.69;95.07
49194;BME280;35029;50.804;12.866;2023-09-08T05:36:09;98172.84;;;13.65;95.64
49194;BME280;35029;50.804;12.866;2023-09-08T05:38:35;98176.31;;;13.73;95.95
49194;BME280;35029;50.804;12.866;2023-09-08T05:41:01;98178.59;;;13.69;96.26
49194;BME280;35029;50.804;12.866;2023-09-08T05:43:28;98193.72;;;14.09;98.75
49194;BME280;35029;50.804;12.866;2023-09-08T05:45:54;98203.72;;;14.47;96.28
49194;BME280;35029;50.804;12.866;2023-09-08T05:48:20;98195.91;;;14.52;95.39
49194;BME280;35029;50.804;12.866;2023-09-08T05:50:46;98194.66;;;14.48;94.89
49194;BME280;35029;50.804;12.866;2023-09-08T05:53:12;98192.41;;;14.45;96.37
49194;BME280;35029;50.804;12.866;2023-09-08T05:55:37;98195.31;;;14.43;96.67
49194;BME280;35029;50.804;12.866;2023-09-08T05:58:03;98200.00;;;14.48;97.63
49194;BME280;35029;50.804;12.866;2023-09-08T06:00:28;98195.69;;;14.53;97.33
49194;BME280;35029;50.804;12.866;2023-09-08T06:02:54;98193.19;;;14.59;98.02
49194;BME280;35029;50.804;12.866;2023-09-08T06:05:20;98184.59;;;14.57;99.02
49194;BME280;35029;50.804;12.866;2023-09-08T06:07:45;98184.81;;;14.68;99.04
49194;BME280;35029;50.804;12.866;2023-09-08T06:10:11;98186.22;;;14.71;100.00
49194;BME280;35029;50.804;12.866;2023-09-08T06:12:37;98190.28;;;14.80;100.00
49194;BME280;35029;50.804;12.866;2023-09-08T06:15:03;98188.63;;;14.86;100.00
49194;BME280;35029;50.804;12.866;2023-09-08T06:17:30;98183.88;;;14.95;100.00
49194;BME280;35029;50.804;12.866;2023-09-08T06:19:55;98200.66;;;15.02;100.00
49194;BME280;35029;50.804;12.866;2023-09-08T06:22:21;98193.25;;;15.11;100.00
49194;BME280;35029;50.804;12.866;2023-09-08T06:24:47;98192.31;;;15.30;100.00
49194;BME280;35029;50.804;12.866;2023-09-08T06:27:14;98187.72;;;15.37;100.00
49194;BME280;35029;50.804;12.866;2023-09-08T06:29:40;98183.28;;;15.57;100.00
49194;BME280;35029;50.804;12.866;2023-09-08T06:32:10;98144.09;;;15.50;100.00
49194;BME280;35029;50.804;12.866;2023-09-08T06:34:36;98188.34;;;15.97;100.00
49194;BME280;35029;50.804;12.866;2023-09-08T06:37:02;98145.94;;;16.00;100.00
49194;BME280;35029;50.804;12.866;2023-09-08T06:39:28;98173.56;;;16.38;100.00
49194;BME280;35029;50.804;12.866;2023-09-08T06:41:55;98193.03;;;16.64;99.38
49194;BME280;35029;50.804;12.866;2023-09-08T06:44:21;98189.97;;;16.79;98.91
49194;BME280;35029;50.804;12.866;2023-09-08T06:46:47;98184.50;;;16.92;97.42
49194;BME280;35029;50.804;12.866;2023-09-08T06:49:13;98177.34;;;17.04;97.69
49194;BME280;35029;50.804;12.866;2023-09-08T06:51:39;98185.75;;;17.20;96.83
49194;BME280;35029;50.804;12.866;2023-09-08T06:54:04;98181.50;;;17.31;96.50
49194;BME280;35029;50.804;12.866;2023-09-08T06:56:38;98181.88;;;17.46;96.06
49194;BME280;35029;50.804;12.866;2023-09-08T06:59:05;98172.00;;;17.58;95.29
49194;BME280;35029;50.804;12.866;2023-09-08T07:01:32;98183.34;;;17.84;94.17
49194;BME280;35029;50.804;12.866;2023-09-08T07:03:58;98175.34;;;17.96;93.32
49194;BME280;35029;50.804;12.866;2023-09-08T07:06:23;98172.31;;;18.04;92.67
49194;BME280;35029;50.804;12.866;2023-09-08T07:08:50;98166.03;;;18.11;92.72
49194;BME280;35029;50.804;12.866;2023-09-08T07:11:17;98182.22;;;18.28;90.89
49194;BME280;35029;50.804;12.866;2023-09-08T07:13:42;98152.59;;;18.22;90.80
49194;BME280;35029;50.804;12.866;2023-09-08T07:16:08;98177.66;;;18.52;89.96
49194;BME280;35029;50.804;12.866;2023-09-08T07:18:35;98176.00;;;18.63;89.30
49194;BME280;35029;50.804;12.866;2023-09-08T07:21:03;98169.34;;;18.65;88.22
49194;BME280;35029;50.804;12.866;2023-09-08T07:23:28;98182.09;;;18.87;87.02
49194;BME280;35029;50.804;12.866;2023-09-08T07:25:54;98171.13;;;19.00;86.40
49194;BME280;35029;50.804;12.866;2023-09-08T07:28:23;98172.81;;;19.18;87.69
49194;BME280;35029;50.804;12.866;2023-09-08T07:30:49;98171.94;;;19.30;85.63
49194;BME280;35029;50.804;12.866;2023-09-08T07:33:15;98171.53;;;19.38;83.33
49194;BME280;35029;50.804;12.866;2023-09-08T07:35:42;98164.72;;;19.47;83.00
49194;BME280;35029;50.804;12.866;2023-09-08T07:38:08;98178.41;;;19.63;81.92
49194;BME280;35029;50.804;12.866;2023-09-08T07:40:34;98173.66;;;19.82;80.39
49194;BME280;35029;50.804;12.866;2023-09-08T07:43:00;98162.56;;;19.95;79.63
49194;BME280;35029;50.804;12.866;2023-09-08T07:45:26;98179.81;;;20.16;79.33
49194;BME280;35029;50.804;12.866;2023-09-08T07:47:51;98172.84;;;20.37;79.32
49194;BME280;35029;50.804;12.866;2023-09-08T07:50:27;98168.97;;;20.50;77.25
49194;BME280;35029;50.804;12.866;2023-09-08T07:52:55;98174.56;;;20.66;73.41
49194;BME280;35029;50.804;12.866;2023-09-08T07:55:22;98167.22;;;20.83;71.55
49194;BME280;35029;50.804;12.866;2023-09-08T07:57:49;98171.75;;;21.00;71.20
49194;BME280;35029;50.804;12.866;2023-09-08T08:00:15;98159.41;;;21.04;70.12
49194;BME280;35029;50.804;12.866;2023-09-08T08:02:44;98166.00;;;21.18;69.17
49194;BME280;35029;50.804;12.866;2023-09-08T08:05:10;98167.63;;;21.47;70.40
49194;BME280;35029;50.804;12.866;2023-09-08T08:07:36;98176.41;;;21.59;68.22
49194;BME280;35029;50.804;12.866;2023-09-08T08:10:02;98167.63;;;21.74;67.93
49194;BME280;35029;50.804;12.866;2023-09-08T08:12:27;98180.91;;;21.81;66.15
49194;BME280;35029;50.804;12.866;2023-09-08T08:14:53;98176.97;;;21.99;66.11
49194;BME280;35029;50.804;12.866;2023-09-08T08:17:18;98174.94;;;22.16;64.83
49194;BME280;35029;50.804;12.866;2023-09-08T08:19:45;98167.16;;;22.20;62.15
49194;BME280;35029;50.804;12.866;2023-09-08T08:22:11;98171.59;;;22.36;63.01
49194;BME280;35029;50.804;12.866;2023-09-08T08:24:37;98175.44;;;22.51;59.40
49194;BME280;35029;50.804;12.866;2023-09-08T08:27:02;98170.63;;;22.63;56.41
49194;BME280;35029;50.804;12.866;2023-09-08T08:29:28;98170.09;;;22.71;56.54
49194;BME280;35029;50.804;12.866;2023-09-08T08:31:54;98171.22;;;22.81;54.69
49194;BME280;35029;50.804;12.866;2023-09-08T08:34:20;98160.44;;;22.86;54.37
49194;BME280;35029;50.804;12.866;2023-09-08T08:36:45;98133.13;;;22.82;53.51
49194;BME280;35029;50.804;12.866;2023-09-08T08:39:11;98157.81;;;23.11;53.98
49194;BME280;35029;50.804;12.866;2023-09-08T08:41:36;98164.88;;;23.18;51.33
49194;BME280;35029;50.804;12.866;2023-09-08T08:44:07;98161.13;;;23.24;50.69
49194;BME280;35029;50.804;12.866;2023-09-08T08:46:34;98151.38;;;23.28;52.05
49194;BME280;35029;50.804;12.866;2023-09-08T08:49:04;98149.78;;;23.42;51.89
49194;BME280;35029;50.804;12.866;2023-09-08T08:51:32;98143.00;;;23.50;50.34
49194;BME280;35029;50.804;12.866;2023-09-08T08:54:00;98147.63;;;23.65;50.20
49194;BME280;35029;50.804;12.866;2023-09-08T08:56:30;98139.78;;;23.74;50.59
49194;BME280;35029;50.804;12.866;2023-09-08T08:58:57;98143.28;;;23.85;49.42
49194;BME280;35029;50.804;12.866;2023-09-08T09:01:24;98141.38;;;23.85;49.65
49194;BME280;35029;50.804;12.866;2023-09-08T09:03:51;98139.78;;;23.89;49.41
49194;BME280;35029;50.804;12.866;2023-09-08T09:06:18;98148.72;;;24.00;49.05
49194;BME280;35029;50.804;12.866;2023-09-08T09:08:44;98140.31;;;24.12;48.29
49194;BME280;35029;50.804;12.866;2023-09-08T09:11:11;98147.03;;;24.25;47.21
49194;BME280;35029;50.804;12.866;2023-09-08T09:13:37;98136.44;;;24.34;47.06
49194;BME280;35029;50.804;12.866;2023-09-08T09:16:03;98139.97;;;24.39;47.82
49194;BME280;35029;50.804;12.866;2023-09-08T09:18:29;98130.19;;;24.38;46.70
49194;BME280;35029;50.804;12.866;2023-09-08T09:20:59;98137.75;;;24.52;45.13
49194;BME280;35029;50.804;12.866;2023-09-08T09:25:53;98135.84;;;24.62;45.08
49194;BME280;35029;50.804;12.866;2023-09-08T09:28:19;98136.34;;;24.70;44.75
49194;BME280;35029;50.804;12.866;2023-09-08T09:30:49;98128.19;;;24.75;44.82
49194;BME280;35029;50.804;12.866;2023-09-08T09:33:15;98119.19;;;24.79;42.99
49194;BME280;35029;50.804;12.866;2023-09-08T09:35:49;98132.13;;;24.98;43.55
49194;BME280;35029;50.804;12.866;2023-09-08T09:38:15;98137.78;;;25.02;43.24
49194;BME280;35029;50.804;12.866;2023-09-08T09:40:44;98128.81;;;25.06;42.62
49194;BME280;35029;50.804;12.866;2023-09-08T09:43:11;98130.97;;;25.09;42.33
49194;BME280;35029;50.804;12.866;2023-09-08T09:45:37;98134.13;;;25.22;42.36
49194;BME280;35029;50.804;12.866;2023-09-08T09:48:04;98133.56;;;25.25;42.61
49194;BME280;35029;50.804;12.866;2023-09-08T09:50:35;98134.06;;;25.37;41.90
49194;BME280;35029;50.804;12.866;2023-09-08T09:53:09;98128.56;;;25.47;41.27
49194;BME280;35029;50.804;12.866;2023-09-08T09:55:37;98114.69;;;25.49;41.11
49194;BME280;35029;50.804;12.866;2023-09-08T09:58:07;98124.59;;;25.69;40.52
49194;BME280;35029;50.804;12.866;2023-09-08T10:00:34;98110.72;;;25.71;40.10
49194;BME280;35029;50.804;12.866;2023-09-08T10:03:00;98120.09;;;25.84;39.60
49194;BME280;35029;50.804;12.866;2023-09-08T10:05:26;98128.94;;;25.94;39.29
49194;BME280;35029;50.804;12.866;2023-09-08T10:07:52;98125.38;;;25.99;37.99
49194;BME280;35029;50.804;12.866;2023-09-08T10:10:20;98125.91;;;26.01;39.06
49194;BME280;35029;50.804;12.866;2023-09-08T10:12:52;98129.13;;;26.08;38.94
49194;BME280;35029;50.804;12.866;2023-09-08T10:15:21;98124.41;;;26.19;38.09
49194;BME280;35029;50.804;12.866;2023-09-08T10:17:55;98124.56;;;26.28;37.76
49194;BME280;35029;50.804;12.866;2023-09-08T10:20:23;98124.31;;;26.48;37.02
49194;BME280;35029;50.804;12.866;2023-09-08T10:22:56;98120.50;;;26.49;36.49
49194;BME280;35029;50.804;12.866;2023-09-08T10:25:31;98112.56;;;26.53;37.17
49194;BME280;35029;50.804;12.866;2023-09-08T10:28:01;98121.19;;;26.60;37.31
49194;BME280;35029;50.804;12.866;2023-09-08T10:30:27;98112.38;;;26.69;35.41
49194;BME280;35029;50.804;12.866;2023-09-08T10:32:54;98115.34;;;26.72;34.59
49194;BME280;35029;50.804;12.866;2023-09-08T10:35:20;98105.84;;;26.70;35.18
49194;BME280;35029;50.804;12.866;2023-09-08T10:37:46;98112.50;;;26.82;34.84
49194;BME280;35029;50.804;12.866;2023-09-08T10:40:21;98110.38;;;26.98;34.90
49194;BME280;35029;50.804;12.866;2023-09-08T10:42:48;98115.00;;;26.98;34.49
49194;BME280;35029;50.804;12.866;2023-09-08T10:45:18;98096.25;;;26.96;34.31
49194;BME280;35029;50.804;12.866;2023-09-08T10:50:16;98077.94;;;27.02;33.11
49194;BME280;35029;50.804;12.866;2023-09-08T10:52:42;98098.09;;;27.20;34.50
49194;BME280;35029;50.804;12.866;2023-09-08T10:55:08;98093.81;;;27.33;34.00
49194;BME280;35029;50.804;12.866;2023-09-08T10:57:33;98101.31;;;27.41;33.06
49194;BME280;35029;50.804;12.866;2023-09-08T11:00:02;98098.13;;;27.53;33.02
49194;BME280;35029;50.804;12.866;2023-09-08T11:02:55;98094.13;;;27.64;36.20
49194;BME280;35029;50.804;12.866;2023-09-08T11:05:21;98097.56;;;27.70;33.36
49194;BME280;35029;50.804;12.866;2023-09-08T11:07:47;98091.34;;;27.83;32.41
49194;BME280;35029;50.804;12.866;2023-09-08T11:10:14;98097.41;;;27.80;32.62
49194;BME280;35029;50.804;12.866;2023-09-08T11:12:40;98076.28;;;27.72;32.38
49194;BME280;35029;50.804;12.866;2023-09-08T11:15:07;98087.50;;;27.85;31.93
49194;BME280;35029;50.804;12.866;2023-09-08T11:17:38;98087.91;;;27.92;32.78
49194;BME280;35029;50.804;12.866;2023-09-08T11:20:08;98093.72;;;28.04;31.91
49194;BME280;35029;50.804;12.866;2023-09-08T11:22:35;98081.22;;;28.17;30.79
49194;BME280;35029;50.804;12.866;2023-09-08T11:25:01;98089.78;;;28.24;31.22
49194;BME280;35029;50.804;12.866;2023-09-08T11:27:31;98086.03;;;28.34;30.45
49194;BME280;35029;50.804;12.866;2023-09-08T11:29:57;98088.75;;;28.34;29.14
49194;BME280;35029;50.804;12.866;2023-09-08T11:32:24;98079.09;;;28.28;31.03
49194;BME280;35029;50.804;12.866;2023-09-08T11:34:50;98048.19;;;28.19;29.86
49194;BME280;35029;50.804;12.866;2023-09-08T11:37:17;98085.31;;;28.42;29.52
49194;BME280;35029;50.804;12.866;2023-09-08T11:39:46;98083.41;;;28.57;29.15
49194;BME280;35029;50.804;12.866;2023-09-08T11:42:14;98071.19;;;28.68;29.72
49194;BME280;35029;50.804;12.866;2023-09-08T11:44:41;98079.00;;;28.83;31.19
49194;BME280;35029;50.804;12.866;2023-09-08T11:47:07;98080.59;;;28.98;30.86
49194;BME280;35029;50.804;12.866;2023-09-08T11:49:39;98080.84;;;29.11;31.27
49194;BME280;35029;50.804;12.866;2023-09-08T11:52:06;98069.13;;;29.10;30.95
49194;BME280;35029;50.804;12.866;2023-09-08T11:54:35;98073.13;;;29.04;30.57
49194;BME280;35029;50.804;12.866;2023-09-08T11:57:04;98076.88;;;29.17;30.47
49194;BME280;35029;50.804;12.866;2023-09-08T11:59:32;98073.44;;;29.25;31.14
49194;BME280;35029;50.804;12.866;2023-09-08T12:01:58;98066.88;;;29.26;31.48
49194;BME280;35029;50.804;12.866;2023-09-08T12:04:24;98080.53;;;29.26;30.56
49194;BME280;35029;50.804;12.866;2023-09-08T12:06:52;98078.16;;;29.33;31.00
49194;BME280;35029;50.804;12.866;2023-09-08T12:09:20;98067.16;;;29.47;31.66
49194;BME280;35029;50.804;12.866;2023-09-08T12:11:46;98065.16;;;29.62;30.47
49194;BME280;35029;50.804;12.866;2023-09-08T12:14:13;98058.28;;;29.64;30.44
49194;BME280;35029;50.804;12.866;2023-09-08T12:16:40;98017.03;;;29.43;29.82
49194;BME280;35029;50.804;12.866;2023-09-08T12:19:06;98058.81;;;29.75;29.92
49194;BME280;35029;50.804;12.866;2023-09-08T12:21:35;98057.84;;;29.80;30.44
49194;BME280;35029;50.804;12.866;2023-09-08T12:24:18;98055.03;;;29.94;28.46
49194;BME280;35029;50.804;12.866;2023-09-08T12:26:44;98054.78;;;30.04;29.21
49194;BME280;35029;50.804;12.866;2023-09-08T12:29:13;98051.34;;;29.90;29.71
49194;BME280;35029;50.804;12.866;2023-09-08T12:31:39;98049.25;;;29.95;29.55
49194;BME280;35029;50.804;12.866;2023-09-08T12:34:04;98052.69;;;30.01;28.48
49194;BME280;35029;50.804;12.866;2023-09-08T12:36:30;98037.88;;;30.02;28.47
49194;BME280;35029;50.804;12.866;2023-09-08T12:38:55;98040.16;;;30.09;29.63
49194;BME280;35029;50.804;12.866;2023-09-08T12:41:21;98042.56;;;30.10;26.65
49194;BME280;35029;50.804;12.866;2023-09-08T12:43:46;98031.81;;;30.23;28.47
49194;BME280;35029;50.804;12.866;2023-09-08T12:46:12;98023.47;;;30.19;25.88
49194;BME280;35029;50.804;12.866;2023-09-08T12:48:38;98043.00;;;30.52;26.49
49194;BME280;35029;50.804;12.866;2023-09-08T12:51:03;98044.47;;;30.67;26.18
49194;BME280;35029;50.804;12.866;2023-09-08T12:53:35;98036.59;;;30.66;26.62
49194;BME280;35029;50.804;12.866;2023-09-08T12:56:01;98038.81;;;30.55;27.25